Time;durP1;ratioP1;P1;durP2;ratioP2;P2;SDS_P1;SDS_P2;PMS_P1;PMS_P2;Temp;Humidity;BMP_temperature;BMP_pressure;BME280_temperature;BME280_humidity;BME280_pressure;Samples;Min_cycle;Max_cycle;Signal;HPM_P1;HPM_P2
2021/08/02 00:01:59;;;;;;;15.73;5.57;;;;;;;15.50;79.20;101247.44;4803384;29;20041;-64
2021/08/02 00:04:37;;;;;;;15.98;4.25;;;;;;;15.57;79.76;101248.44;4808446;29;20114;-63
2021/08/02 00:07:04;;;;;;;15.35;4.88;;;;;;;15.49;79.40;101251.91;4817236;29;20177;-63
2021/08/02 00:09:36;;;;;;;19.20;4.30;;;;;;;15.42;79.61;101256.19;4818062;29;20138;-63
2021/08/02 00:12:05;;;;;;;19.77;4.60;;;;;;;15.70;79.03;101254.00;4804794;29;20046;-62
2021/08/02 00:14:33;;;;;;;14.43;4.75;;;;;;;15.69;78.90;101251.53;4808717;29;20165;-63
2021/08/02 00:17:01;;;;;;;10.13;5.13;;;;;;;15.68;79.27;101249.88;4819336;29;20045;-63
2021/08/02 00:19:28;;;;;;;10.07;3.95;;;;;;;15.65;79.52;101248.41;4809859;29;20360;-64
2021/08/02 00:21:55;;;;;;;14.57;5.13;;;;;;;15.65;79.11;101247.59;4816518;29;20487;-66
2021/08/02 00:24:24;;;;;;;15.27;4.10;;;;;;;15.73;79.61;101252.88;4810405;29;20045;-63
2021/08/02 00:26:53;;;;;;;13.88;4.32;;;;;;;15.79;78.97;101254.84;4813380;29;20062;-63
2021/08/02 00:29:22;;;;;;;19.55;5.10;;;;;;;15.88;78.12;101255.66;4799983;29;20064;-64
2021/08/02 00:31:49;;;;;;;19.45;4.65;;;;;;;15.85;78.13;101255.97;4817694;29;20077;-63
2021/08/02 00:34:16;;;;;;;14.02;4.38;;;;;;;15.92;77.28;101259.59;4818648;29;20057;-63
2021/08/02 00:36:42;;;;;;;21.40;6.43;;;;;;;15.74;78.97;101255.34;4809656;29;20157;-63
2021/08/02 00:39:33;;;;;;;20.55;6.43;;;;;;;15.82;79.44;101250.03;4815415;29;20149;-63
2021/08/02 00:42:38;;;;;;;14.80;4.90;;;;;;;15.75;78.95;101249.06;4804980;29;20124;-63
2021/08/02 00:45:08;;;;;;;17.33;5.57;;;;;;;15.79;78.89;101255.66;4813459;29;20058;-63
2021/08/02 00:47:39;;;;;;;19.55;5.93;;;;;;;15.96;79.12;101255.63;4801899;29;20126;-63
2021/08/02 00:50:24;;;;;;;23.63;5.65;;;;;;;15.90;78.30;101257.13;4818020;29;20093;-63
2021/08/02 00:53:00;;;;;;;19.73;5.25;;;;;;;16.01;77.94;101258.56;4805231;29;20054;-63
2021/08/02 00:55:35;;;;;;;14.60;5.43;;;;;;;15.84;78.48;101257.81;4812852;29;20171;-62
2021/08/02 00:58:06;;;;;;;14.45;4.97;;;;;;;15.75;78.91;101262.28;4811108;29;20061;-63
2021/08/02 01:00:33;;;;;;;16.75;5.25;;;;;;;15.67;79.56;101256.16;4817180;29;20050;-63
2021/08/02 01:03:05;;;;;;;15.10;5.15;;;;;;;16.24;77.46;101257.81;4819438;29;20054;-64
2021/08/02 01:05:35;;;;;;;16.05;5.10;;;;;;;16.33;76.25;101262.06;4832391;29;20061;-65
2021/08/02 01:08:12;;;;;;;13.95;5.20;;;;;;;16.66;75.06;101262.72;4838234;29;20097;-63
2021/08/02 01:10:44;;;;;;;16.10;4.93;;;;;;;16.91;73.18;101260.72;4837088;29;20165;-64
2021/08/02 01:13:12;;;;;;;34.53;6.07;;;;;;;16.76;73.79;101262.47;4829802;29;20562;-64
2021/08/02 01:15:40;;;;;;;17.63;5.18;;;;;;;16.78;72.90;101269.25;4831513;29;20176;-63
2021/08/02 01:18:09;;;;;;;19.08;5.35;;;;;;;17.12;71.93;101264.53;4838072;29;20145;-64
2021/08/02 01:20:41;;;;;;;16.73;5.05;;;;;;;17.12;71.74;101265.34;4826218;29;20095;-63
2021/08/02 01:23:09;;;;;;;14.98;5.25;;;;;;;17.00;72.83;101275.56;4833595;29;20144;-63
2021/08/02 01:25:38;;;;;;;15.98;5.65;;;;;;;16.91;72.51;101275.78;4830520;29;20064;-64
2021/08/02 01:28:14;;;;;;;15.32;4.47;;;;;;;16.88;72.14;101269.03;4837995;29;20058;-64
2021/08/02 01:30:42;;;;;;;15.52;5.28;;;;;;;16.99;71.98;101263.31;4829520;29;20172;-63
2021/08/02 01:33:08;;;;;;;27.88;5.82;;;;;;;17.11;72.30;101268.19;4836811;29;20140;-63
2021/08/02 01:35:37;;;;;;;17.38;5.75;;;;;;;17.16;71.92;101255.22;4826544;29;20060;-63
2021/08/02 01:38:04;;;;;;;17.08;5.88;;;;;;;17.13;71.52;101261.72;4836504;29;20144;-64
2021/08/02 01:40:31;;;;;;;20.17;5.97;;;;;;;16.73;73.58;101260.97;4837346;29;20093;-63
2021/08/02 01:43:03;;;;;;;22.73;7.85;;;;;;;17.08;72.65;101268.56;4830172;29;20172;-63
2021/08/02 01:45:32;;;;;;;19.25;5.30;;;;;;;16.90;74.21;101266.22;4837152;29;20096;-63
2021/08/02 01:48:10;;;;;;;;;;;;;;;16.90;73.19;101269.69;4828809;29;20065;-63
2021/08/02 01:50:42;;;;;;;17.73;4.93;;;;;;;17.05;72.58;101267.06;4833051;29;20043;-63
2021/08/02 01:53:28;;;;;;;15.98;5.45;;;;;;;17.26;71.51;101270.88;4832062;29;20081;-63
2021/08/02 01:56:38;;;;;;;21.98;6.45;;;;;;;17.56;70.65;101267.28;4837804;29;20061;-63
2021/08/02 01:59:10;;;;;;;20.77;5.13;;;;;;;17.76;69.50;101272.88;4797127;29;20064;-64
2021/08/02 02:01:43;;;;;;;20.88;6.05;;;;;;;17.70;70.09;101270.94;4832803;29;20158;-63
2021/08/02 02:04:12;;;;;;;20.08;6.13;;;;;;;17.63;70.33;101274.50;4827810;29;20156;-64
2021/08/02 02:06:45;;;;;;;20.13;5.50;;;;;;;17.58;69.95;101265.28;4844298;29;20164;-64
2021/08/02 02:09:14;;;;;;;17.73;6.00;;;;;;;17.75;69.70;101271.22;4853815;29;20148;-64
2021/08/02 02:11:45;;;;;;;22.88;6.13;;;;;;;17.94;68.32;101263.75;4860514;29;20081;-64
2021/08/02 02:14:12;;;;;;;20.92;6.00;;;;;;;18.08;68.05;101264.75;4862308;29;20137;-63
2021/08/02 02:16:42;;;;;;;19.63;6.32;;;;;;;18.08;68.42;101260.25;4852540;29;20179;-63
2021/08/02 02:19:11;;;;;;;25.63;7.30;;;;;;;18.11;69.13;101265.19;4823354;29;20429;-63
2021/08/02 02:21:38;;;;;;;;;;;;;;;18.16;68.19;101267.28;4817006;29;20161;-64
2021/08/02 02:24:05;;;;;;;15.63;6.25;;;;;;;18.01;69.38;101267.28;4825356;29;20637;-64
2021/08/02 02:26:33;;;;;;;21.08;6.53;;;;;;;17.94;69.35;101267.22;4820832;29;20094;-63
2021/08/02 02:29:03;;;;;;;23.25;6.47;;;;;;;18.34;68.36;101270.34;4831510;29;20141;-63
2021/08/02 02:31:31;;;;;;;25.42;7.18;;;;;;;18.48;68.22;101267.84;4826188;29;20137;-64
2021/08/02 02:34:01;;;;;;;16.88;6.90;;;;;;;18.51;68.48;101267.50;4843022;29;20078;-64
2021/08/02 02:36:29;;;;;;;21.58;6.57;;;;;;;18.57;67.64;101264.06;4836943;29;20579;-64
2021/08/02 02:38:56;;;;;;;24.30;6.93;;;;;;;18.74;66.16;101264.66;4843235;29;20058;-64
2021/08/02 02:41:24;;;;;;;;;;;;;;;18.73;66.18;101260.34;4842745;29;20053;-64
2021/08/02 02:43:52;;;;;;;21.63;6.55;;;;;;;18.88;66.02;101253.16;4833521;29;20447;-64
2021/08/02 02:46:20;;;;;;;23.38;7.75;;;;;;;18.85;65.21;101253.53;4839350;29;20148;-64
2021/08/02 02:48:48;;;;;;;26.58;9.15;;;;;;;18.92;65.42;101254.44;4836223;29;20064;-64
2021/08/02 02:51:16;;;;;;;17.92;7.05;;;;;;;19.01;65.57;101251.63;4842578;29;20049;-63
2021/08/02 02:53:44;;;;;;;20.70;7.28;;;;;;;19.15;64.71;101253.38;4835353;29;20145;-63
2021/08/02 02:56:13;;;;;;;27.05;7.63;;;;;;;19.23;63.50;101247.94;4842769;29;20064;-63
2021/08/02 02:58:41;;;;;;;17.08;7.00;;;;;;;19.31;63.11;101247.78;4830228;29;20085;-63
2021/08/02 03:01:09;;;;;;;21.00;7.90;;;;;;;19.35;63.77;101245.56;4841281;29;20057;-63
2021/08/02 03:03:40;;;;;;;25.35;8.23;;;;;;;19.22;62.68;101254.25;4842971;29;20141;-64
2021/08/02 03:06:07;;;;;;;24.55;7.90;;;;;;;18.66;65.88;101262.97;4839605;29;20067;-63
2021/08/02 03:08:35;;;;;;;20.58;7.30;;;;;;;18.68;64.77;101255.63;4861104;29;20100;-63
2021/08/02 03:11:05;;;;;;;26.42;7.35;;;;;;;18.56;66.21;101265.91;4850173;29;20065;-63
2021/08/02 03:13:32;;;;;;;17.75;7.50;;;;;;;18.37;66.70;101256.72;4857022;29;20147;-63
2021/08/02 03:15:58;;;;;;;21.60;7.32;;;;;;;18.43;67.24;101257.81;4855168;29;20137;-64
2021/08/02 03:18:25;;;;;;;21.17;7.55;;;;;;;18.51;67.20;101259.53;4847478;29;20064;-63
2021/08/02 03:20:51;;;;;;;21.20;7.28;;;;;;;18.04;67.84;101268.78;4831897;29;20161;-63
2021/08/02 03:23:32;;;;;;;25.73;8.10;;;;;;;16.74;73.46;101275.03;4839811;29;20672;-63
2021/08/02 03:26:13;;;;;;;22.67;7.85;;;;;;;16.25;77.71;101276.16;4836460;29;20089;-62
2021/08/02 03:28:46;;;;;;;28.13;8.27;;;;;;;15.90;79.48;101283.56;4838745;29;20054;-63
2021/08/02 03:31:18;;;;;;;26.13;7.72;;;;;;;15.76;80.56;101290.38;4838443;29;20068;-64
2021/08/02 03:33:45;;;;;;;21.48;7.90;;;;;;;15.65;80.44;101279.31;4835766;29;20777;-63
2021/08/02 03:36:15;;;;;;;27.38;7.60;;;;;;;15.59;81.00;101286.09;4839996;29;20089;-63
2021/08/02 03:38:46;;;;;;;24.30;7.70;;;;;;;15.48;83.52;101283.78;4826877;29;20066;-63
2021/08/02 03:41:14;;;;;;;26.42;7.78;;;;;;;15.47;82.27;101282.97;4838715;29;20148;-62
2021/08/02 03:43:41;;;;;;;26.42;8.70;;;;;;;15.42;83.46;101286.09;4833127;29;20181;-63
2021/08/02 03:46:09;;;;;;;22.13;7.03;;;;;;;15.41;83.34;101287.09;4839399;29;20144;-63
2021/08/02 03:48:36;;;;;;;23.63;8.13;;;;;;;15.33;83.80;101297.69;4833690;29;20144;-64
2021/08/02 03:51:04;;;;;;;20.17;7.60;;;;;;;15.31;83.04;101289.09;4835998;29;20861;-63
2021/08/02 03:53:48;;;;;;;18.35;7.72;;;;;;;15.32;83.26;101287.28;4835577;29;20062;-63
2021/08/02 03:56:16;;;;;;;25.45;7.10;;;;;;;15.30;83.73;101287.44;4839607;29;20137;-63
2021/08/02 03:58:43;;;;;;;25.60;8.32;;;;;;;15.35;84.09;101300.19;4839040;29;20097;-63
2021/08/02 04:01:11;;;;;;;23.92;7.53;;;;;;;15.37;84.10;101293.72;4840538;29;20687;-63
2021/08/02 04:03:38;;;;;;;26.77;8.52;;;;;;;15.35;84.04;101292.25;4857614;29;20569;-63
2021/08/02 04:06:05;;;;;;;20.95;7.90;;;;;;;15.32;84.96;101303.94;4846602;29;20057;-63
2021/08/02 04:08:31;;;;;;;21.42;8.02;;;;;;;15.31;84.28;101306.75;4856706;29;20085;-63
2021/08/02 04:10:57;;;;;;;23.55;7.13;;;;;;;15.31;84.23;101310.25;4850546;29;20166;-64
2021/08/02 04:13:24;;;;;;;21.98;7.57;;;;;;;15.32;84.22;101321.63;4857181;29;20100;-63
2021/08/02 04:15:51;;;;;;;25.67;7.28;;;;;;;15.33;84.07;101316.19;4852766;29;20462;-63
2021/08/02 04:18:17;;;;;;;26.45;7.75;;;;;;;15.34;83.78;101317.84;4841067;29;20061;-63
2021/08/02 04:20:44;;;;;;;29.88;7.07;;;;;;;15.32;83.64;101325.09;4832542;29;20093;-63
2021/08/02 04:23:12;;;;;;;23.95;7.78;;;;;;;15.33;84.08;101326.75;4831534;29;20046;-63
2021/08/02 04:25:39;;;;;;;28.92;7.47;;;;;;;15.30;83.19;101326.25;4838570;29;20101;-62
2021/08/02 04:28:05;;;;;;;24.48;8.32;;;;;;;15.29;83.36;101338.66;4832882;29;20481;-63
2021/08/02 04:30:32;;;;;;;23.42;7.75;;;;;;;15.29;83.54;101328.09;4838803;29;20617;-63
2021/08/02 04:32:58;;;;;;;17.55;6.47;;;;;;;15.28;83.89;101326.41;4826875;29;20120;-63
2021/08/02 04:35:25;;;;;;;26.38;7.15;;;;;;;15.32;83.78;101329.56;4838297;29;20164;-63
2021/08/02 04:37:51;;;;;;;26.42;7.00;;;;;;;15.33;84.18;101339.16;4837394;29;20145;-63
2021/08/02 04:40:17;;;;;;;15.35;6.57;;;;;;;15.32;83.75;101327.75;4835223;29;20113;-63
2021/08/02 04:42:44;;;;;;;28.63;7.45;;;;;;;15.34;83.88;101327.59;4838002;29;20547;-63
2021/08/02 04:45:11;;;;;;;24.38;6.80;;;;;;;15.33;83.83;101332.06;4829755;29;20149;-63
2021/08/02 04:47:37;;;;;;;26.42;6.43;;;;;;;15.36;85.04;101333.53;4852277;29;20153;-63
2021/08/02 04:50:04;;;;;;;20.60;6.32;;;;;;;15.30;84.24;101340.28;4849378;29;20140;-63
2021/08/02 04:52:31;;;;;;;17.95;6.38;;;;;;;15.31;84.04;101336.69;4856056;29;20093;-63
2021/08/02 04:54:57;;;;;;;33.53;7.07;;;;;;;15.32;83.64;101334.84;4850698;29;20151;-63
2021/08/02 04:57:23;;;;;;;27.83;7.22;;;;;;;15.35;84.20;101335.34;4856224;29;20141;-63
2021/08/02 04:59:50;;;;;;;20.02;6.25;;;;;;;15.34;83.60;101338.97;4852759;29;20144;-64
2021/08/02 05:02:16;;;;;;;20.40;6.72;;;;;;;15.39;83.55;101338.50;4841575;29;20085;-63
2021/08/02 05:04:43;;;;;;;19.55;6.10;;;;;;;15.34;83.63;101338.97;4856083;29;20910;-63
2021/08/02 05:07:10;;;;;;;22.55;6.75;;;;;;;15.76;83.34;101334.53;4850021;29;20714;-64
2021/08/02 05:09:36;;;;;;;20.90;6.40;;;;;;;15.47;82.99;101337.66;4855461;29;20168;-63
2021/08/02 05:12:03;;;;;;;20.33;6.88;;;;;;;15.41;83.53;101341.81;4845823;29;20089;-64
2021/08/02 05:14:29;;;;;;;18.23;6.40;;;;;;;15.40;83.16;101342.78;4849901;29;20526;-63
2021/08/02 05:16:56;;;;;;;25.80;7.30;;;;;;;15.42;84.91;101344.25;4847139;29;20224;-63
2021/08/02 05:19:23;;;;;;;17.85;6.63;;;;;;;15.37;83.46;101340.47;4837721;29;20070;-63
2021/08/02 05:21:49;;;;;;;21.98;6.43;;;;;;;15.44;83.67;101338.81;4848776;29;20122;-63
2021/08/02 05:24:15;;;;;;;23.40;7.22;;;;;;;15.42;84.35;101338.16;4849263;29;20085;-63
2021/08/02 05:26:43;;;;;;;18.38;7.03;;;;;;;15.45;84.26;101331.72;4852197;29;20128;-63
2021/08/02 05:29:10;;;;;;;23.73;6.80;;;;;;;15.49;84.04;101339.16;4845442;29;20181;-63
2021/08/02 05:31:36;;;;;;;25.48;6.78;;;;;;;15.55;84.17;101345.59;4850388;29;20379;-66
2021/08/02 05:34:03;;;;;;;20.75;6.85;;;;;;;15.58;84.23;101347.88;4849288;29;20084;-63
2021/08/02 05:36:29;;;;;;;20.45;6.68;;;;;;;15.58;84.44;101347.88;4855342;29;20103;-64
2021/08/02 05:38:56;;;;;;;19.15;7.32;;;;;;;15.61;83.76;101348.38;4849672;29;20057;-64
2021/08/02 05:41:22;;;;;;;27.60;7.68;;;;;;;15.64;83.34;101349.88;4850992;29;20817;-65
2021/08/02 05:43:49;;;;;;;22.05;6.18;;;;;;;15.61;84.23;101352.84;4851244;29;20089;-63
2021/08/02 05:46:15;;;;;;;21.35;7.03;;;;;;;15.60;83.03;101351.19;4845746;29;20096;-64
2021/08/02 05:48:43;;;;;;;21.70;6.53;;;;;;;15.63;83.96;101354.34;4855512;29;20129;-63
2021/08/02 05:51:10;;;;;;;18.25;6.35;;;;;;;15.67;83.61;101356.66;4848440;29;20152;-64
2021/08/02 05:53:37;;;;;;;25.38;7.10;;;;;;;15.69;83.78;101360.78;4854629;29;20065;-63
2021/08/02 05:56:03;;;;;;;29.58;7.50;;;;;;;15.70;83.99;101351.88;4841820;29;20122;-63
2021/08/02 05:58:30;;;;;;;25.15;7.43;;;;;;;15.74;84.43;101365.59;4854434;29;20493;-64
2021/08/02 06:00:56;;;;;;;19.95;6.72;;;;;;;15.77;84.25;101360.78;4849313;29;20550;-63
2021/08/02 06:03:23;;;;;;;21.58;6.95;;;;;;;15.86;83.57;101358.13;4851708;29;20049;-63
2021/08/02 06:05:50;;;;;;;25.00;7.32;;;;;;;15.80;83.21;101357.00;4855164;29;20073;-63
2021/08/02 06:08:16;;;;;;;23.50;7.53;;;;;;;15.76;83.22;101359.16;4846474;29;20132;-64
2021/08/02 06:10:43;;;;;;;19.33;6.90;;;;;;;15.73;81.81;101359.47;4851171;29;20096;-63
2021/08/02 06:13:09;;;;;;;18.88;7.40;;;;;;;15.71;82.72;101361.44;4849395;29;20713;-63
2021/08/02 06:15:35;;;;;;;21.48;7.53;;;;;;;15.73;82.62;101370.06;4855623;29;20550;-63
2021/08/02 06:18:02;;;;;;;18.38;6.78;;;;;;;15.74;83.08;101361.16;4839113;29;20451;-63
2021/08/02 06:20:29;;;;;;;17.63;6.13;;;;;;;15.78;82.24;101362.47;4844929;29;20088;-64
2021/08/02 06:22:55;;;;;;;17.92;6.82;;;;;;;15.80;82.69;101365.75;4847247;29;20081;-64
2021/08/02 06:25:22;;;;;;;28.27;7.22;;;;;;;15.80;83.10;101365.75;4842958;29;20141;-63
2021/08/02 06:27:48;;;;;;;19.73;7.05;;;;;;;15.84;83.34;101362.75;4855090;29;20419;-63
2021/08/02 06:30:16;;;;;;;24.67;7.28;;;;;;;15.88;84.10;101370.22;4845772;29;20509;-63
2021/08/02 06:32:42;;;;;;;25.70;6.90;;;;;;;15.82;81.98;101369.06;4835881;29;20094;-63
2021/08/02 06:35:09;;;;;;;22.05;6.35;;;;;;;15.80;81.59;101368.41;4827295;29;20062;-64
2021/08/02 06:37:45;;;;;;;18.55;6.32;;;;;;;15.87;81.21;101367.75;4824262;29;20141;-64
2021/08/02 06:40:13;;;;;;;17.13;5.55;;;;;;;15.97;80.79;101374.47;4849525;29;20432;-64
2021/08/02 06:42:40;;;;;;;;;;;;;;;15.86;81.13;101374.00;4854960;29;20474;-64
2021/08/02 06:45:08;;;;;;;23.20;6.18;;;;;;;15.78;80.41;101370.41;4845515;29;19925;-64
2021/08/02 06:47:35;;;;;;;19.75;5.43;;;;;;;15.77;79.56;101376.66;4830989;29;20255;-63
2021/08/02 06:50:02;;;;;;;22.50;5.68;;;;;;;15.77;80.75;101379.31;4833482;29;20139;-63
2021/08/02 06:52:28;;;;;;;10.60;4.45;;;;;;;15.75;79.26;101377.84;4825471;29;20145;-63
2021/08/02 06:54:55;;;;;;;22.58;4.65;;;;;;;15.75;78.89;101375.19;4837715;29;20153;-63
2021/08/02 06:57:21;;;;;;;16.65;4.53;;;;;;;15.80;79.43;101376.34;4833416;29;20057;-63
2021/08/02 06:59:48;;;;;;;16.50;3.75;;;;;;;15.86;78.48;101385.44;4840503;29;20057;-63
2021/08/02 07:02:15;;;;;;;19.08;4.95;;;;;;;15.92;78.38;101384.75;4834393;29;20203;-63
2021/08/02 07:04:41;;;;;;;12.30;3.50;;;;;;;15.96;77.27;101386.06;4833467;29;20062;-63
2021/08/02 07:07:08;;;;;;;18.35;3.85;;;;;;;15.96;77.32;101375.50;4849622;29;20089;-64
2021/08/02 07:09:36;;;;;;;12.75;3.53;;;;;;;16.00;77.95;101386.56;4865771;29;20145;-63
2021/08/02 07:12:03;;;;;;;19.55;3.15;;;;;;;16.02;76.57;101382.75;4857682;29;20100;-63
2021/08/02 07:14:29;;;;;;;12.70;3.90;;;;;;;16.07;78.13;101379.59;4851686;29;20144;-63
2021/08/02 07:16:56;;;;;;;24.40;3.30;;;;;;;16.06;77.29;101382.44;4852745;29;20127;-63
2021/08/02 07:19:22;;;;;;;19.15;3.03;;;;;;;16.13;77.76;101386.03;4829470;29;20066;-63
2021/08/02 07:21:49;;;;;;;18.98;2.72;;;;;;;16.15;76.81;101392.81;4838004;29;20066;-63
2021/08/02 07:24:15;;;;;;;10.60;3.35;;;;;;;16.23;77.14;101388.50;4833505;29;20136;-63
2021/08/02 07:26:42;;;;;;;7.28;3.00;;;;;;;16.26;75.63;101391.63;4839576;29;20561;-63
2021/08/02 07:29:08;;;;;;;12.63;2.75;;;;;;;16.31;76.03;101394.59;4839708;29;20100;-63
2021/08/02 07:31:35;;;;;;;10.80;3.05;;;;;;;16.40;75.64;101398.84;4828519;29;20521;-63
2021/08/02 07:34:02;;;;;;;16.83;2.95;;;;;;;16.44;75.11;101396.69;4834745;29;20060;-63
2021/08/02 07:36:28;;;;;;;18.67;3.45;;;;;;;16.51;73.37;101396.84;4833913;29;20118;-63
2021/08/02 07:38:55;;;;;;;20.88;3.28;;;;;;;16.63;73.14;101394.66;4840259;29;20786;-63
2021/08/02 07:41:22;;;;;;;14.18;3.03;;;;;;;16.75;73.07;101394.09;4832597;29;20097;-63
2021/08/02 07:43:49;;;;;;;10.77;2.90;;;;;;;16.78;72.20;101391.09;4838264;29;20136;-62
2021/08/02 07:46:16;;;;;;;9.23;2.92;;;;;;;16.94;70.89;101395.53;4827555;29;20152;-63
2021/08/02 07:48:42;;;;;;;19.25;2.65;;;;;;;17.16;69.78;101401.03;4835438;29;20144;-63
2021/08/02 07:51:09;;;;;;;15.20;2.90;;;;;;;17.26;72.13;101395.50;4839005;29;20808;-63
2021/08/02 07:53:35;;;;;;;11.90;2.33;;;;;;;17.32;66.43;101390.28;4833587;29;20778;-64
2021/08/02 07:56:02;;;;;;;21.08;3.75;;;;;;;17.32;67.39;101387.63;4839392;29;20149;-63
2021/08/02 07:58:28;;;;;;;10.90;3.08;;;;;;;17.52;69.10;101392.47;4828121;29;20173;-63
2021/08/02 08:00:55;;;;;;;14.48;3.42;;;;;;;17.53;69.60;101396.78;4834303;29;20161;-63
2021/08/02 08:03:22;;;;;;;19.75;4.38;;;;;;;17.55;69.47;101386.81;4834134;29;20494;-63
2021/08/02 08:05:49;;;;;;;20.65;4.53;;;;;;;19.84;62.20;101395.59;4840064;29;20069;-63
2021/08/02 08:08:16;;;;;;;6.95;2.45;;;;;;;21.53;55.48;101382.50;4857811;29;20528;-63
2021/08/02 08:10:42;;;;;;;13.88;3.35;;;;;;;21.08;54.80;101386.75;4850625;29;20110;-63
2021/08/02 08:13:09;;;;;;;9.55;2.63;;;;;;;20.56;55.48;101391.66;4851977;29;20447;-63
2021/08/02 08:15:35;;;;;;;13.20;3.22;;;;;;;20.44;55.36;101388.75;4849837;29;20538;-63
2021/08/02 08:18:02;;;;;;;9.25;3.00;;;;;;;20.79;56.09;101379.91;4847002;29;20141;-64
2021/08/02 08:20:29;;;;;;;13.82;3.03;;;;;;;21.27;55.57;101379.81;4830441;29;20150;-63
2021/08/02 08:22:55;;;;;;;15.90;2.88;;;;;;;22.31;49.82;101378.31;4838263;29;20148;-64
2021/08/02 08:25:22;;;;;;;16.88;3.35;;;;;;;22.05;48.71;101384.50;4828661;29;20487;-64
2021/08/02 08:27:50;;;;;;;7.50;2.83;;;;;;;22.22;49.23;101382.22;4835111;29;20068;-64
2021/08/02 08:30:18;;;;;;;10.40;2.95;;;;;;;22.76;48.64;101382.84;4839050;29;20058;-64
2021/08/02 08:32:45;;;;;;;8.00;2.75;;;;;;;23.39;48.44;101376.72;4832336;29;20136;-64
2021/08/02 08:35:12;;;;;;;12.90;2.80;;;;;;;23.68;46.74;101384.09;4839049;29;20058;-63
2021/08/02 08:37:39;;;;;;;13.05;3.70;;;;;;;23.54;46.73;101385.25;4832900;29;20809;-63
2021/08/02 08:40:08;;;;;;;11.50;2.97;;;;;;;21.22;54.14;101390.25;4834179;29;20064;-63
2021/08/02 08:42:34;;;;;;;;;;;;;;;21.40;53.10;101387.00;4830853;29;20141;-64
2021/08/02 08:45:01;;;;;;;17.50;3.60;;;;;;;21.89;52.75;101388.44;4839054;29;20393;-64
2021/08/02 08:47:31;;;;;;;10.88;3.08;;;;;;;20.30;56.29;101393.19;4831483;29;20095;-63
2021/08/02 08:49:57;;;;;;;;;;;;;;;19.77;57.84;101392.03;4839217;29;20126;-64
2021/08/02 08:52:24;;;;;;;13.27;3.55;;;;;;;19.40;58.86;101396.59;4833392;29;20019;-63
2021/08/02 08:54:50;;;;;;;11.18;3.13;;;;;;;19.20;59.45;101391.91;4830612;29;20145;-63
2021/08/02 08:57:17;;;;;;;12.27;4.10;;;;;;;19.09;59.76;101392.41;4838688;29;20474;-63
2021/08/02 08:59:46;;;;;;;11.18;3.53;;;;;;;19.09;60.80;101387.94;4832085;29;20558;-63
2021/08/02 09:02:13;;;;;;;11.25;3.67;;;;;;;19.03;61.67;101388.66;4837622;29;20149;-63
2021/08/02 09:04:40;;;;;;;6.47;3.15;;;;;;;19.01;60.99;101401.31;4827551;29;20066;-63
2021/08/02 09:07:07;;;;;;;11.10;3.90;;;;;;;19.73;61.79;101404.91;4844855;29;20080;-64
2021/08/02 09:09:35;;;;;;;10.98;3.33;;;;;;;19.41;61.29;101404.41;4849730;29;20550;-63
2021/08/02 09:12:05;;;;;;;;;;;;;;;19.20;59.13;101407.06;4856164;29;20057;-63
2021/08/02 09:14:32;;;;;;;10.30;3.50;;;;;;;19.13;60.47;101399.00;4856479;29;20039;-64
2021/08/02 09:17:00;;;;;;;11.32;3.92;;;;;;;19.19;60.66;101403.59;4848357;29;20061;-63
2021/08/02 09:19:42;;;;;;;12.77;3.72;;;;;;;19.23;60.69;101402.19;4831230;29;20093;-63
2021/08/02 09:22:09;;;;;;;14.93;3.92;;;;;;;19.13;57.25;101401.66;4828298;29;20093;-63
2021/08/02 09:24:35;;;;;;;11.93;4.93;;;;;;;19.20;60.62;101397.25;4838005;29;20479;-63
2021/08/02 09:27:02;;;;;;;6.75;3.00;;;;;;;19.08;58.41;101399.56;4832180;29;20141;-63
2021/08/02 09:29:31;;;;;;;12.07;3.53;;;;;;;19.39;58.50;101406.44;4838067;29;20474;-63
2021/08/02 09:32:00;;;;;;;15.07;3.85;;;;;;;19.34;57.68;101404.31;4827108;29;20467;-63
2021/08/02 09:34:26;;;;;;;;;;;;;;;19.40;58.91;101407.25;4833934;29;20136;-63
2021/08/02 09:36:59;;;;;;;9.75;3.25;;;;;;;19.43;59.38;101401.56;4831669;29;19975;-63
2021/08/02 09:39:31;;;;;;;10.60;3.65;;;;;;;19.44;58.58;101411.16;4837153;29;20148;-63
2021/08/02 09:42:06;;;;;;;11.40;4.13;;;;;;;19.44;58.01;101414.66;4837194;29;20097;-63
2021/08/02 09:44:47;;;;;;;12.95;3.60;;;;;;;19.48;57.59;101413.28;4835597;29;20072;-63
2021/08/02 09:47:13;;;;;;;10.63;3.20;;;;;;;19.56;57.44;101415.81;4832148;29;20096;-64
2021/08/02 09:49:48;;;;;;;8.55;3.25;;;;;;;19.80;59.32;101418.25;4830106;29;20121;-63
2021/08/02 09:52:15;;;;;;;13.35;3.45;;;;;;;19.64;56.90;101409.53;4837038;29;20097;-63
2021/08/02 09:54:42;;;;;;;9.67;3.17;;;;;;;19.84;58.47;101411.56;4829667;29;20111;-63
2021/08/02 09:57:09;;;;;;;10.52;3.55;;;;;;;19.99;57.26;101403.44;4837407;29;20054;-63
2021/08/02 09:59:39;;;;;;;8.75;3.40;;;;;;;19.87;54.84;101411.16;4824621;29;20088;-63
2021/08/02 10:02:06;;;;;;;9.82;2.80;;;;;;;19.70;55.18;101407.94;4833034;29;20144;-64
2021/08/02 10:04:34;;;;;;;11.50;3.43;;;;;;;19.90;55.59;101408.94;4831058;29;20494;-63
2021/08/02 10:07:02;;;;;;;8.07;2.92;;;;;;;20.10;56.74;101414.38;4846988;29;20058;-63
2021/08/02 10:09:28;;;;;;;11.15;3.38;;;;;;;20.41;54.78;101407.00;4855736;29;20070;-63
2021/08/02 10:11:56;;;;;;;15.13;3.28;;;;;;;20.83;55.44;101402.47;4848225;29;20562;-65
2021/08/02 10:14:33;;;;;;;9.07;3.30;;;;;;;21.31;52.10;101394.38;4855279;29;20061;-63
2021/08/02 10:17:05;;;;;;;7.78;3.08;;;;;;;21.60;50.62;101401.22;4846877;29;20058;-64
2021/08/02 10:19:55;;;;;;;10.00;3.70;;;;;;;21.75;51.72;101410.84;4837005;29;20065;-64
2021/08/02 10:22:22;;;;;;;9.68;2.83;;;;;;;21.45;50.62;101397.91;4826874;29;20152;-63
2021/08/02 10:24:51;;;;;;;8.05;2.75;;;;;;;21.48;50.36;101402.81;4830416;29;20058;-64
2021/08/02 10:27:27;;;;;;;13.45;4.00;;;;;;;21.71;51.35;101400.56;4830758;29;20072;-64
2021/08/02 10:30:06;;;;;;;9.40;3.10;;;;;;;21.80;51.69;101395.84;4838905;29;20061;-63
2021/08/02 10:32:35;;;;;;;;;;;;;;;21.72;51.74;101407.56;4833204;29;20375;-63
2021/08/02 10:35:03;;;;;;;10.93;3.10;;;;;;;21.66;52.24;101405.72;4841355;29;20372;-63
2021/08/02 10:37:35;;;;;;;9.27;2.58;;;;;;;21.60;52.85;101398.53;4836603;29;20511;-63
2021/08/02 10:40:12;;;;;;;8.05;2.83;;;;;;;21.48;52.11;101403.66;4840091;29;20145;-63
2021/08/02 10:42:51;;;;;;;5.40;2.30;;;;;;;21.62;54.35;101403.66;4839708;29;20157;-63
2021/08/02 10:45:32;;;;;;;7.55;2.60;;;;;;;21.56;53.91;101409.81;4835115;29;20050;-64
2021/08/02 10:47:58;;;;;;;11.50;2.50;;;;;;;21.50;53.98;101409.63;4840703;29;20483;-64
2021/08/02 10:50:30;;;;;;;10.43;2.67;;;;;;;21.39;53.43;101409.38;4827626;29;20463;-64
2021/08/02 10:52:57;;;;;;;9.23;2.42;;;;;;;21.53;53.84;101411.06;4839994;29;20067;-64
2021/08/02 10:55:29;;;;;;;10.05;2.58;;;;;;;21.48;51.67;101400.16;4833428;29;20168;-64
2021/08/02 10:57:59;;;;;;;15.10;3.03;;;;;;;21.56;52.41;101409.81;4840559;29;20530;-64
2021/08/02 11:00:27;;;;;;;14.35;2.08;;;;;;;21.50;52.67;101406.13;4834320;29;20149;-64
2021/08/02 11:02:56;;;;;;;10.57;2.30;;;;;;;21.56;53.13;101408.00;4836375;29;20061;-64
2021/08/02 11:05:28;;;;;;;7.75;2.60;;;;;;;21.59;52.34;101409.41;4832687;29;20065;-64
2021/08/02 11:08:01;;;;;;;10.43;2.42;;;;;;;21.62;53.18;101407.16;4857083;29;20065;-64
2021/08/02 11:10:27;;;;;;;8.60;2.10;;;;;;;21.58;51.82;101408.59;4858369;29;20054;-64
2021/08/02 11:12:54;;;;;;;8.60;2.38;;;;;;;21.43;51.28;101400.78;4852224;29;20925;-64
2021/08/02 11:15:20;;;;;;;7.75;1.90;;;;;;;21.56;50.93;101401.81;4853655;29;20061;-64
2021/08/02 11:17:54;;;;;;;19.05;2.40;;;;;;;21.64;51.44;101402.44;4840433;29;20142;-64
2021/08/02 11:20:24;;;;;;;5.78;1.70;;;;;;;21.77;49.09;101395.44;4836966;29;20093;-65
2021/08/02 11:22:52;;;;;;;12.13;2.38;;;;;;;21.88;49.97;101400.16;4832998;29;20140;-64
2021/08/02 11:25:30;;;;;;;7.75;2.42;;;;;;;22.25;51.16;101408.56;4840443;29;20141;-64
2021/08/02 11:27:59;;;;;;;6.95;1.85;;;;;;;22.58;49.28;101396.91;4829608;29;20097;-64